sensor_id;sensor_type;location;lat;lon;timestamp;pressure;altitude;pressure_sealevel;temperature;humidity
71476;BME280;59286;59.274;17.974;2022-07-29T00:00:38;101855.06;;;11.48;78.62
71476;BME280;59286;59.274;17.974;2022-07-29T00:03:04;101856.88;;;11.47;79.06
71476;BME280;59286;59.274;17.974;2022-07-29T00:05:29;101852.19;;;11.44;78.58
71476;BME280;59286;59.274;17.974;2022-07-29T00:07:55;101858.22;;;11.45;78.48
71476;BME280;59286;59.274;17.974;2022-07-29T00:10:20;101860.59;;;11.46;78.52
71476;BME280;59286;59.274;17.974;2022-07-29T00:12:46;101856.38;;;11.45;78.25
71476;BME280;59286;59.274;17.974;2022-07-29T00:15:11;101853.47;;;11.47;78.20
71476;BME280;59286;59.274;17.974;2022-07-29T00:17:37;101851.41;;;11.44;78.60
71476;BME280;59286;59.274;17.974;2022-07-29T00:20:03;101856.38;;;11.45;78.46
71476;BME280;59286;59.274;17.974;2022-07-29T00:22:28;101847.69;;;11.50;77.79
71476;BME280;59286;59.274;17.974;2022-07-29T00:24:54;101853.19;;;11.53;77.85
71476;BME280;59286;59.274;17.974;2022-07-29T00:27:19;101849.50;;;11.54;77.56
71476;BME280;59286;59.274;17.974;2022-07-29T00:29:45;101846.13;;;11.54;77.50
71476;BME280;59286;59.274;17.974;2022-07-29T00:32:10;101844.84;;;11.46;77.58
71476;BME280;59286;59.274;17.974;2022-07-29T00:34:36;101843.28;;;11.40;77.41
71476;BME280;59286;59.274;17.974;2022-07-29T00:37:19;101840.38;;;11.42;77.25
71476;BME280;59286;59.274;17.974;2022-07-29T00:39:45;101849.31;;;11.41;78.06
71476;BME280;59286;59.274;17.974;2022-07-29T00:42:10;101844.84;;;11.36;77.33
71476;BME280;59286;59.274;17.974;2022-07-29T00:44:39;101852.25;;;11.29;77.89
71476;BME280;59286;59.274;17.974;2022-07-29T00:47:04;101844.88;;;11.26;77.71
71476;BME280;59286;59.274;17.974;2022-07-29T00:49:30;101844.88;;;11.26;77.68
71476;BME280;59286;59.274;17.974;2022-07-29T00:51:55;101841.50;;;11.26;77.32
71476;BME280;59286;59.274;17.974;2022-07-29T00:54:22;101844.63;;;11.23;77.34
71476;BME280;59286;59.274;17.974;2022-07-29T00:56:48;101847.28;;;11.18;77.85
71476;BME280;59286;59.274;17.974;2022-07-29T00:59:14;101831.31;;;11.09;77.51
71476;BME280;59286;59.274;17.974;2022-07-29T01:01:39;101837.06;;;11.06;77.46
71476;BME280;59286;59.274;17.974;2022-07-29T01:04:06;101840.00;;;11.00;78.00
71476;BME280;59286;59.274;17.974;2022-07-29T01:06:32;101831.88;;;10.96;77.58
71476;BME280;59286;59.274;17.974;2022-07-29T01:08:58;101840.78;;;10.95;77.97
71476;BME280;59286;59.274;17.974;2022-07-29T01:11:25;101842.66;;;10.85;79.34
71476;BME280;59286;59.274;17.974;2022-07-29T01:13:51;101835.84;;;10.63;79.74
71476;BME280;59286;59.274;17.974;2022-07-29T01:16:26;101844.50;;;10.69;78.82
71476;BME280;59286;59.274;17.974;2022-07-29T01:19:01;101837.69;;;10.68;78.99
71476;BME280;59286;59.274;17.974;2022-07-29T01:29:16;101836.09;;;10.67;80.24
71476;BME280;59286;59.274;17.974;2022-07-29T01:34:46;101838.72;;;10.67;79.81
71476;BME280;59286;59.274;17.974;2022-07-29T01:37:22;101840.81;;;10.65;80.29
71476;BME280;59286;59.274;17.974;2022-07-29T01:39:51;101843.19;;;10.61;80.76
71476;BME280;59286;59.274;17.974;2022-07-29T01:42:37;101837.69;;;10.58;80.73
71476;BME280;59286;59.274;17.974;2022-07-29T01:47:40;101839.50;;;10.57;80.64
71476;BME280;59286;59.274;17.974;2022-07-29T01:50:10;101842.66;;;10.54;81.52
71476;BME280;59286;59.274;17.974;2022-07-29T01:52:46;101850.28;;;10.51;82.24
71476;BME280;59286;59.274;17.974;2022-07-29T01:55:15;101843.72;;;10.53;81.71
71476;BME280;59286;59.274;17.974;2022-07-29T01:57:46;101850.53;;;10.49;81.87
71476;BME280;59286;59.274;17.974;2022-07-29T02:00:13;101844.50;;;10.49;80.93
71476;BME280;59286;59.274;17.974;2022-07-29T02:02:41;101842.94;;;10.48;80.63
71476;BME280;59286;59.274;17.974;2022-07-29T02:05:10;101846.34;;;10.48;80.43
71476;BME280;59286;59.274;17.974;2022-07-29T02:07:36;101842.16;;;10.47;80.42
71476;BME280;59286;59.274;17.974;2022-07-29T02:10:04;101843.44;;;10.45;81.61
71476;BME280;59286;59.274;17.974;2022-07-29T02:12:32;101839.53;;;10.37;80.47
71476;BME280;59286;59.274;17.974;2022-07-29T02:15:00;101839.53;;;10.37;80.19
71476;BME280;59286;59.274;17.974;2022-07-29T02:17:31;101839.00;;;10.35;80.25
71476;BME280;59286;59.274;17.974;2022-07-29T02:20:00;101842.69;;;10.34;80.71
71476;BME280;59286;59.274;17.974;2022-07-29T02:22:29;101839.78;;;10.31;80.97
71476;BME280;59286;59.274;17.974;2022-07-29T02:24:55;101845.56;;;10.33;80.78
71476;BME280;59286;59.274;17.974;2022-07-29T02:27:23;101841.34;;;10.32;81.58
71476;BME280;59286;59.274;17.974;2022-07-29T02:29:51;101842.91;;;10.28;81.41
71476;BME280;59286;59.274;17.974;2022-07-29T02:32:17;101845.53;;;10.23;82.61
71476;BME280;59286;59.274;17.974;2022-07-29T02:34:44;101846.34;;;10.23;82.72
71476;BME280;59286;59.274;17.974;2022-07-29T02:37:12;101845.00;;;10.21;83.25
71476;BME280;59286;59.274;17.974;2022-07-29T02:39:40;101845.53;;;10.23;81.91
71476;BME280;59286;59.274;17.974;2022-07-29T02:42:10;101851.84;;;10.27;81.53
71476;BME280;59286;59.274;17.974;2022-07-29T02:44:36;101846.34;;;10.28;81.32
71476;BME280;59286;59.274;17.974;2022-07-29T02:47:24;101853.94;;;10.25;81.98
71476;BME280;59286;59.274;17.974;2022-07-29T02:50:12;101853.41;;;10.28;81.57
71476;BME280;59286;59.274;17.974;2022-07-29T02:53:12;101861.53;;;10.26;82.17
71476;BME280;59286;59.274;17.974;2022-07-29T02:55:44;101861.25;;;10.28;81.57
71476;BME280;59286;59.274;17.974;2022-07-29T02:58:23;101863.13;;;10.32;81.36
71476;BME280;59286;59.274;17.974;2022-07-29T03:00:55;101860.22;;;10.34;81.43
71476;BME280;59286;59.274;17.974;2022-07-29T03:03:22;101866.00;;;10.36;81.78
71476;BME280;59286;59.274;17.974;2022-07-29T03:05:57;101864.44;;;10.40;82.10
71476;BME280;59286;59.274;17.974;2022-07-29T03:08:23;101866.53;;;10.43;82.23
71476;BME280;59286;59.274;17.974;2022-07-29T03:10:50;101871.50;;;10.49;82.82
71476;BME280;59286;59.274;17.974;2022-07-29T03:13:16;101863.66;;;10.54;81.54
71476;BME280;59286;59.274;17.974;2022-07-29T03:15:44;101860.22;;;10.54;81.18
71476;BME280;59286;59.274;17.974;2022-07-29T03:18:10;101866.50;;;10.63;80.98
71476;BME280;59286;59.274;17.974;2022-07-29T03:20:37;101864.16;;;10.71;80.66
71476;BME280;59286;59.274;17.974;2022-07-29T03:23:02;101867.03;;;10.75;81.44
71476;BME280;59286;59.274;17.974;2022-07-29T03:25:28;101872.81;;;10.82;81.27
71476;BME280;59286;59.274;17.974;2022-07-29T03:27:53;101872.28;;;10.90;81.19
71476;BME280;59286;59.274;17.974;2022-07-29T03:30:19;101870.94;;;10.98;81.57
71476;BME280;59286;59.274;17.974;2022-07-29T03:32:44;101870.66;;;11.04;81.63
71476;BME280;59286;59.274;17.974;2022-07-29T03:35:09;101873.28;;;11.14;81.39
71476;BME280;59286;59.274;17.974;2022-07-29T03:37:35;101877.47;;;11.20;81.72
71476;BME280;59286;59.274;17.974;2022-07-29T03:40:03;101877.44;;;11.25;81.83
71476;BME280;59286;59.274;17.974;2022-07-29T03:42:31;101886.59;;;11.38;81.16
71476;BME280;59286;59.274;17.974;2022-07-29T03:45:00;101877.38;;;11.50;81.17
71476;BME280;59286;59.274;17.974;2022-07-29T03:47:28;101869.19;;;11.57;81.44
71476;BME280;59286;59.274;17.974;2022-07-29T03:50:00;101868.41;;;11.66;81.04
71476;BME280;59286;59.274;17.974;2022-07-29T03:52:27;101860.22;;;11.73;80.80
71476;BME280;59286;59.274;17.974;2022-07-29T03:54:52;101866.75;;;11.81;80.57
71476;BME280;59286;59.274;17.974;2022-07-29T03:57:20;101867.25;;;11.88;80.50
71476;BME280;59286;59.274;17.974;2022-07-29T03:59:50;101864.03;;;11.96;80.59
71476;BME280;59286;59.274;17.974;2022-07-29T04:02:16;101866.38;;;12.02;80.45
71476;BME280;59286;59.274;17.974;2022-07-29T04:04:42;101873.41;;;12.12;80.05
71476;BME280;59286;59.274;17.974;2022-07-29T04:07:11;101880.69;;;12.20;80.23
71476;BME280;59286;59.274;17.974;2022-07-29T04:09:37;101879.84;;;12.29;79.56
71476;BME280;59286;59.274;17.974;2022-07-29T04:12:02;101877.41;;;12.43;79.32
71476;BME280;59286;59.274;17.974;2022-07-29T04:14:28;101880.94;;;12.57;78.54
71476;BME280;59286;59.274;17.974;2022-07-29T04:16:53;101879.81;;;12.68;78.26
71476;BME280;59286;59.274;17.974;2022-07-29T04:19:19;101887.31;;;12.85;77.21
71476;BME280;59286;59.274;17.974;2022-07-29T04:21:44;101885.88;;;12.97;77.20
71476;BME280;59286;59.274;17.974;2022-07-29T04:24:10;101883.66;;;13.09;76.74
71476;BME280;59286;59.274;17.974;2022-07-29T04:26:35;101882.44;;;13.25;76.29
71476;BME280;59286;59.274;17.974;2022-07-29T04:29:01;101882.78;;;13.42;75.70
71476;BME280;59286;59.274;17.974;2022-07-29T04:31:26;101881.75;;;13.62;75.22
71476;BME280;59286;59.274;17.974;2022-07-29T04:33:51;101885.00;;;13.78;74.51
71476;BME280;59286;59.274;17.974;2022-07-29T04:36:17;101884.72;;;13.98;74.65
71476;BME280;59286;59.274;17.974;2022-07-29T04:38:42;101892.41;;;14.13;73.65
71476;BME280;59286;59.274;17.974;2022-07-29T04:41:08;101879.25;;;14.31;73.33
71476;BME280;59286;59.274;17.974;2022-07-29T04:43:37;101885.78;;;14.52;73.45
71476;BME280;59286;59.274;17.974;2022-07-29T04:46:03;101886.22;;;14.73;73.52
71476;BME280;59286;59.274;17.974;2022-07-29T04:48:31;101877.66;;;14.95;72.69
71476;BME280;59286;59.274;17.974;2022-07-29T04:50:56;101880.88;;;15.19;71.80
71476;BME280;59286;59.274;17.974;2022-07-29T04:53:21;101887.09;;;15.41;70.93
71476;BME280;59286;59.274;17.974;2022-07-29T04:55:48;101877.75;;;15.58;70.01
71476;BME280;59286;59.274;17.974;2022-07-29T04:58:14;101881.38;;;15.62;68.81
71476;BME280;59286;59.274;17.974;2022-07-29T05:00:39;101877.25;;;15.69;69.24
71476;BME280;59286;59.274;17.974;2022-07-29T05:03:05;101885.53;;;15.90;69.78
71476;BME280;59286;59.274;17.974;2022-07-29T05:05:30;101888.59;;;16.19;68.63
71476;BME280;59286;59.274;17.974;2022-07-29T05:07:56;101885.00;;;16.37;68.17
71476;BME280;59286;59.274;17.974;2022-07-29T05:10:22;101880.63;;;16.55;67.47
71476;BME280;59286;59.274;17.974;2022-07-29T05:12:47;101891.97;;;16.77;67.67
71476;BME280;59286;59.274;17.974;2022-07-29T05:15:13;101884.44;;;17.01;66.26
71476;BME280;59286;59.274;17.974;2022-07-29T05:17:38;101890.63;;;17.27;64.50
71476;BME280;59286;59.274;17.974;2022-07-29T05:20:05;101895.38;;;17.48;64.51
71476;BME280;59286;59.274;17.974;2022-07-29T05:22:31;101886.34;;;17.49;64.02
71476;BME280;59286;59.274;17.974;2022-07-29T05:24:56;101882.81;;;17.70;64.43
71476;BME280;59286;59.274;17.974;2022-07-29T05:27:21;101889.38;;;17.98;62.91
71476;BME280;59286;59.274;17.974;2022-07-29T05:29:47;101892.66;;;18.04;61.64
71476;BME280;59286;59.274;17.974;2022-07-29T05:32:12;101892.66;;;18.21;61.72
71476;BME280;59286;59.274;17.974;2022-07-29T05:34:38;101899.50;;;18.39;57.98
71476;BME280;59286;59.274;17.974;2022-07-29T05:37:03;101899.22;;;18.49;58.50
71476;BME280;59286;59.274;17.974;2022-07-29T05:39:29;101894.00;;;18.78;57.54
71476;BME280;59286;59.274;17.974;2022-07-29T05:41:54;101897.06;;;18.97;57.61
71476;BME280;59286;59.274;17.974;2022-07-29T05:44:20;101896.81;;;19.19;55.68
71476;BME280;59286;59.274;17.974;2022-07-29T05:46:45;101897.78;;;19.15;56.92
71476;BME280;59286;59.274;17.974;2022-07-29T05:49:10;101898.19;;;19.25;53.96
71476;BME280;59286;59.274;17.974;2022-07-29T05:51:36;101903.69;;;19.20;48.55
71476;BME280;59286;59.274;17.974;2022-07-29T05:54:01;101904.88;;;19.40;52.22
71476;BME280;59286;59.274;17.974;2022-07-29T05:56:27;101904.44;;;19.59;50.08
71476;BME280;59286;59.274;17.974;2022-07-29T05:58:52;101907.66;;;19.73;49.39
71476;BME280;59286;59.274;17.974;2022-07-29T06:01:18;101910.19;;;19.90;48.91
71476;BME280;59286;59.274;17.974;2022-07-29T06:03:43;101911.09;;;19.94;47.91
71476;BME280;59286;59.274;17.974;2022-07-29T06:06:09;101911.28;;;19.89;48.19
71476;BME280;59286;59.274;17.974;2022-07-29T06:08:35;101915.38;;;20.07;48.00
71476;BME280;59286;59.274;17.974;2022-07-29T06:11:02;101912.81;;;20.19;46.20
71476;BME280;59286;59.274;17.974;2022-07-29T06:13:27;101912.22;;;20.13;47.47
71476;BME280;59286;59.274;17.974;2022-07-29T06:15:53;101909.72;;;20.29;45.30
71476;BME280;59286;59.274;17.974;2022-07-29T06:18:18;101908.09;;;20.37;45.84
71476;BME280;59286;59.274;17.974;2022-07-29T06:20:46;101921.84;;;20.59;44.20
71476;BME280;59286;59.274;17.974;2022-07-29T06:23:11;101919.59;;;20.49;44.54
71476;BME280;59286;59.274;17.974;2022-07-29T06:25:36;101922.16;;;20.58;45.34
71476;BME280;59286;59.274;17.974;2022-07-29T06:28:03;101924.44;;;20.68;42.66
71476;BME280;59286;59.274;17.974;2022-07-29T06:30:29;101922.41;;;20.65;42.88
71476;BME280;59286;59.274;17.974;2022-07-29T06:32:54;101928.31;;;20.70;43.98
71476;BME280;59286;59.274;17.974;2022-07-29T06:35:20;101934.53;;;20.74;45.00
71476;BME280;59286;59.274;17.974;2022-07-29T06:37:46;101928.22;;;20.91;44.09
71476;BME280;59286;59.274;17.974;2022-07-29T06:40:12;101930.38;;;20.97;44.37
71476;BME280;59286;59.274;17.974;2022-07-29T06:42:56;101927.31;;;21.19;43.32
71476;BME280;59286;59.274;17.974;2022-07-29T06:45:21;101924.63;;;21.32;41.56
71476;BME280;59286;59.274;17.974;2022-07-29T06:47:47;101929.97;;;21.19;40.53
71476;BME280;59286;59.274;17.974;2022-07-29T06:50:13;101937.59;;;20.97;41.63
71476;BME280;59286;59.274;17.974;2022-07-29T06:52:39;101936.63;;;21.13;42.63
71476;BME280;59286;59.274;17.974;2022-07-29T06:55:06;101929.19;;;21.43;40.66
71476;BME280;59286;59.274;17.974;2022-07-29T06:57:32;101941.41;;;21.56;40.48
71476;BME280;59286;59.274;17.974;2022-07-29T06:59:57;101933.75;;;21.55;41.88
71476;BME280;59286;59.274;17.974;2022-07-29T07:02:22;101933.06;;;21.70;40.08
71476;BME280;59286;59.274;17.974;2022-07-29T07:04:48;101942.06;;;21.77;41.37
71476;BME280;59286;59.274;17.974;2022-07-29T07:07:13;101934.72;;;21.98;41.22
71476;BME280;59286;59.274;17.974;2022-07-29T07:09:38;101933.91;;;21.98;42.36
71476;BME280;59286;59.274;17.974;2022-07-29T07:12:04;101935.19;;;22.16;42.65
71476;BME280;59286;59.274;17.974;2022-07-29T07:14:29;101940.06;;;22.26;41.55
71476;BME280;59286;59.274;17.974;2022-07-29T07:16:55;101931.31;;;22.41;38.99
71476;BME280;59286;59.274;17.974;2022-07-29T07:19:20;101937.13;;;22.31;39.34
71476;BME280;59286;59.274;17.974;2022-07-29T07:21:45;101936.97;;;22.12;40.33
71476;BME280;59286;59.274;17.974;2022-07-29T07:24:11;101932.56;;;22.04;38.86
71476;BME280;59286;59.274;17.974;2022-07-29T07:26:36;101941.19;;;21.85;38.17
71476;BME280;59286;59.274;17.974;2022-07-29T07:29:03;101937.94;;;21.92;38.91
71476;BME280;59286;59.274;17.974;2022-07-29T07:31:28;101930.13;;;21.99;39.10
71476;BME280;59286;59.274;17.974;2022-07-29T07:33:53;101938.50;;;21.73;37.93
71476;BME280;59286;59.274;17.974;2022-07-29T07:36:19;101932.38;;;21.73;39.38
71476;BME280;59286;59.274;17.974;2022-07-29T07:38:44;101925.91;;;21.98;38.95
71476;BME280;59286;59.274;17.974;2022-07-29T07:41:10;101920.91;;;22.24;40.45
71476;BME280;59286;59.274;17.974;2022-07-29T07:43:35;101924.56;;;22.59;40.70
71476;BME280;59286;59.274;17.974;2022-07-29T07:46:00;101926.75;;;22.69;38.27
71476;BME280;59286;59.274;17.974;2022-07-29T07:48:26;101916.97;;;22.61;36.81
71476;BME280;59286;59.274;17.974;2022-07-29T07:50:51;101917.09;;;22.80;36.68
71476;BME280;59286;59.274;17.974;2022-07-29T07:53:17;101922.00;;;22.94;37.46
71476;BME280;59286;59.274;17.974;2022-07-29T07:55:42;101925.56;;;22.82;37.08
71476;BME280;59286;59.274;17.974;2022-07-29T07:58:08;101917.41;;;22.63;36.29
71476;BME280;59286;59.274;17.974;2022-07-29T08:00:33;101915.56;;;22.52;36.26
71476;BME280;59286;59.274;17.974;2022-07-29T08:02:59;101915.50;;;22.36;37.85
71476;BME280;59286;59.274;17.974;2022-07-29T08:05:24;101915.81;;;22.47;36.96
71476;BME280;59286;59.274;17.974;2022-07-29T08:07:49;101919.31;;;22.63;38.00
71476;BME280;59286;59.274;17.974;2022-07-29T08:10:16;101922.06;;;22.66;38.58
71476;BME280;59286;59.274;17.974;2022-07-29T08:13:07;101929.00;;;22.67;38.56
71476;BME280;59286;59.274;17.974;2022-07-29T08:15:34;101928.41;;;22.89;37.91
71476;BME280;59286;59.274;17.974;2022-07-29T08:18:00;101926.59;;;22.93;38.10
71476;BME280;59286;59.274;17.974;2022-07-29T08:20:26;101924.16;;;23.04;39.75
71476;BME280;59286;59.274;17.974;2022-07-29T08:22:51;101934.78;;;23.32;39.15
71476;BME280;59286;59.274;17.974;2022-07-29T08:25:17;101928.75;;;23.35;36.58
71476;BME280;59286;59.274;17.974;2022-07-29T08:27:45;101917.16;;;23.15;38.10
71476;BME280;59286;59.274;17.974;2022-07-29T08:30:11;101925.72;;;23.21;37.75
71476;BME280;59286;59.274;17.974;2022-07-29T08:32:36;101922.88;;;23.14;38.23
71476;BME280;59286;59.274;17.974;2022-07-29T08:35:02;101925.56;;;23.14;38.66
71476;BME280;59286;59.274;17.974;2022-07-29T08:37:27;101931.44;;;22.88;36.86
71476;BME280;59286;59.274;17.974;2022-07-29T08:39:53;101922.69;;;22.32;38.96
71476;BME280;59286;59.274;17.974;2022-07-29T08:42:18;101912.56;;;21.98;39.10
71476;BME280;59286;59.274;17.974;2022-07-29T08:44:43;101930.34;;;22.06;38.46
71476;BME280;59286;59.274;17.974;2022-07-29T08:47:10;101921.91;;;22.04;37.98
71476;BME280;59286;59.274;17.974;2022-07-29T08:49:39;101921.38;;;22.26;37.52
71476;BME280;59286;59.274;17.974;2022-07-29T08:52:04;101911.81;;;21.73;37.43
71476;BME280;59286;59.274;17.974;2022-07-29T08:54:30;101913.75;;;21.25;39.20
71476;BME280;59286;59.274;17.974;2022-07-29T08:56:56;101929.09;;;21.03;40.65
71476;BME280;59286;59.274;17.974;2022-07-29T08:59:24;101933.88;;;21.22;39.42
71476;BME280;59286;59.274;17.974;2022-07-29T09:01:53;101925.53;;;21.48;40.08
71476;BME280;59286;59.274;17.974;2022-07-29T09:04:19;101927.06;;;21.61;38.76
71476;BME280;59286;59.274;17.974;2022-07-29T09:06:50;101922.69;;;21.92;41.34
71476;BME280;59286;59.274;17.974;2022-07-29T09:09:16;101923.94;;;22.23;39.24
71476;BME280;59286;59.274;17.974;2022-07-29T09:11:42;101917.59;;;22.43;39.45
71476;BME280;59286;59.274;17.974;2022-07-29T09:14:11;101922.94;;;22.70;36.70
71476;BME280;59286;59.274;17.974;2022-07-29T09:16:50;101917.75;;;22.34;38.27
71476;BME280;59286;59.274;17.974;2022-07-29T09:19:26;101924.91;;;22.30;38.36
71476;BME280;59286;59.274;17.974;2022-07-29T09:21:53;101922.69;;;22.32;37.60
71476;BME280;59286;59.274;17.974;2022-07-29T09:27:00;101915.69;;;22.86;38.37
71476;BME280;59286;59.274;17.974;2022-07-29T09:29:25;101914.16;;;23.17;37.67
71476;BME280;59286;59.274;17.974;2022-07-29T09:31:53;101919.31;;;23.41;37.36
71476;BME280;59286;59.274;17.974;2022-07-29T09:34:26;101913.16;;;23.56;38.13
71476;BME280;59286;59.274;17.974;2022-07-29T09:36:54;101920.63;;;23.16;39.00
71476;BME280;59286;59.274;17.974;2022-07-29T09:39:32;101922.25;;;22.73;38.54
71476;BME280;59286;59.274;17.974;2022-07-29T09:42:01;101912.59;;;22.69;37.59
71476;BME280;59286;59.274;17.974;2022-07-29T09:44:27;101916.59;;;22.75;37.26
71476;BME280;59286;59.274;17.974;2022-07-29T09:47:05;101905.31;;;22.54;35.29
71476;BME280;59286;59.274;17.974;2022-07-29T09:49:36;101908.28;;;22.64;34.71
71476;BME280;59286;59.274;17.974;2022-07-29T09:52:14;101910.59;;;22.38;35.87
71476;BME280;59286;59.274;17.974;2022-07-29T09:54:39;101914.88;;;21.99;36.11
71476;BME280;59286;59.274;17.974;2022-07-29T09:57:09;101908.78;;;21.75;36.38
71476;BME280;59286;59.274;17.974;2022-07-29T09:59:59;101909.25;;;21.89;38.95
71476;BME280;59286;59.274;17.974;2022-07-29T10:02:32;101911.94;;;22.17;37.19
71476;BME280;59286;59.274;17.974;2022-07-29T10:04:58;101911.47;;;22.42;37.14
71476;BME280;59286;59.274;17.974;2022-07-29T10:07:24;101910.41;;;22.59;34.96
71476;BME280;59286;59.274;17.974;2022-07-29T10:09:54;101914.94;;;22.70;35.83
71476;BME280;59286;59.274;17.974;2022-07-29T10:12:20;101920.09;;;22.63;36.03
71476;BME280;59286;59.274;17.974;2022-07-29T10:14:46;101910.38;;;22.43;36.18
71476;BME280;59286;59.274;17.974;2022-07-29T10:17:12;101915.47;;;21.93;36.20
71476;BME280;59286;59.274;17.974;2022-07-29T10:19:38;101907.91;;;21.71;35.90
71476;BME280;59286;59.274;17.974;2022-07-29T10:22:07;101917.69;;;21.91;36.56
71476;BME280;59286;59.274;17.974;2022-07-29T10:24:37;101915.25;;;22.13;37.62
71476;BME280;59286;59.274;17.974;2022-07-29T10:27:04;101919.06;;;22.12;37.31
71476;BME280;59286;59.274;17.974;2022-07-29T10:29:30;101907.94;;;22.38;37.68
71476;BME280;59286;59.274;17.974;2022-07-29T10:32:10;101909.88;;;22.53;37.30
71476;BME280;59286;59.274;17.974;2022-07-29T10:40:36;101907.69;;;22.86;34.30
71476;BME280;59286;59.274;17.974;2022-07-29T10:43:02;101902.84;;;22.61;35.83
71476;BME280;59286;59.274;17.974;2022-07-29T10:45:33;101898.13;;;22.42;35.61
71476;BME280;59286;59.274;17.974;2022-07-29T10:48:05;101902.03;;;22.17;34.88
71476;BME280;59286;59.274;17.974;2022-07-29T10:53:19;101907.16;;;21.58;36.87
71476;BME280;59286;59.274;17.974;2022-07-29T10:55:44;101903.97;;;21.16;37.97
71476;BME280;59286;59.274;17.974;2022-07-29T10:58:21;101897.19;;;21.19;37.40
71476;BME280;59286;59.274;17.974;2022-07-29T11:00:52;101900.72;;;21.11;36.87
71476;BME280;59286;59.274;17.974;2022-07-29T11:06:05;101891.34;;;21.65;40.06
71476;BME280;59286;59.274;17.974;2022-07-29T11:08:30;101891.53;;;21.96;38.62
71476;BME280;59286;59.274;17.974;2022-07-29T11:16:14;101879.28;;;22.51;36.41
71476;BME280;59286;59.274;17.974;2022-07-29T11:19:19;101887.75;;;22.68;35.12
71476;BME280;59286;59.274;17.974;2022-07-29T11:21:45;101882.91;;;22.58;35.55
71476;BME280;59286;59.274;17.974;2022-07-29T11:24:23;101882.25;;;22.49;36.21
71476;BME280;59286;59.274;17.974;2022-07-29T11:29:54;101877.44;;;22.39;36.12
71476;BME280;59286;59.274;17.974;2022-07-29T11:32:22;101885.38;;;22.51;36.95
71476;BME280;59286;59.274;17.974;2022-07-29T11:34:48;101880.38;;;22.50;36.74
71476;BME280;59286;59.274;17.974;2022-07-29T11:37:15;101880.69;;;22.33;36.19
71476;BME280;59286;59.274;17.974;2022-07-29T11:45:05;101875.72;;;22.47;36.58
71476;BME280;59286;59.274;17.974;2022-07-29T11:47:32;101877.25;;;22.48;36.37
71476;BME280;59286;59.274;17.974;2022-07-29T11:49:59;101877.66;;;22.62;36.12
71476;BME280;59286;59.274;17.974;2022-07-29T11:52:54;101879.38;;;22.70;34.98
71476;BME280;59286;59.274;17.974;2022-07-29T11:55:22;101864.03;;;22.67;35.01
71476;BME280;59286;59.274;17.974;2022-07-29T11:57:54;101873.09;;;22.93;35.67
71476;BME280;59286;59.274;17.974;2022-07-29T12:00:27;101871.41;;;23.20;36.02
71476;BME280;59286;59.274;17.974;2022-07-29T12:02:53;101888.19;;;23.33;35.46
71476;BME280;59286;59.274;17.974;2022-07-29T12:05:19;101869.75;;;23.47;35.55
71476;BME280;59286;59.274;17.974;2022-07-29T12:07:46;101876.81;;;23.55;35.04
71476;BME280;59286;59.274;17.974;2022-07-29T12:10:12;101876.09;;;23.58;34.39
71476;BME280;59286;59.274;17.974;2022-07-29T12:12:37;101873.84;;;23.60;34.37
71476;BME280;59286;59.274;17.974;2022-07-29T12:15:17;101874.56;;;23.57;33.59
71476;BME280;59286;59.274;17.974;2022-07-29T12:17:46;101872.03;;;23.64;34.66
71476;BME280;59286;59.274;17.974;2022-07-29T12:20:11;101863.28;;;23.67;32.59
71476;BME280;59286;59.274;17.974;2022-07-29T12:22:40;101860.91;;;23.62;33.91
71476;BME280;59286;59.274;17.974;2022-07-29T12:25:09;101865.09;;;23.44;33.70
71476;BME280;59286;59.274;17.974;2022-07-29T12:27:36;101857.78;;;23.60;34.44
71476;BME280;59286;59.274;17.974;2022-07-29T12:30:08;101859.19;;;23.54;33.31
71476;BME280;59286;59.274;17.974;2022-07-29T12:32:37;101861.88;;;23.54;34.70
71476;BME280;59286;59.274;17.974;2022-07-29T12:35:12;101859.75;;;23.44;32.56
71476;BME280;59286;59.274;17.974;2022-07-29T12:37:38;101856.09;;;23.52;32.86
71476;BME280;59286;59.274;17.974;2022-07-29T12:40:05;101853.41;;;23.52;31.65
71476;BME280;59286;59.274;17.974;2022-07-29T12:42:32;101851.28;;;23.42;32.14
71476;BME280;59286;59.274;17.974;2022-07-29T12:44:58;101850.22;;;23.46;32.83
71476;BME280;59286;59.274;17.974;2022-07-29T12:47:23;101842.38;;;23.53;33.34
71476;BME280;59286;59.274;17.974;2022-07-29T12:49:50;101847.63;;;23.50;34.38
71476;BME280;59286;59.274;17.974;2022-07-29T12:52:32;101844.69;;;23.55;32.81
71476;BME280;59286;59.274;17.974;2022-07-29T12:54:58;101849.16;;;23.66;33.96
71476;BME280;59286;59.274;17.974;2022-07-29T12:57:24;101844.03;;;23.61;32.63
71476;BME280;59286;59.274;17.974;2022-07-29T13:00:05;101844.41;;;23.60;33.58
71476;BME280;59286;59.274;17.974;2022-07-29T13:02:33;101842.72;;;23.71;33.63
71476;BME280;59286;59.274;17.974;2022-07-29T13:05:01;101840.03;;;23.52;31.54
71476;BME280;59286;59.274;17.974;2022-07-29T13:07:31;101837.78;;;23.19;31.88
71476;BME280;59286;59.274;17.974;2022-07-29T13:10:14;101837.34;;;23.01;32.47
71476;BME280;59286;59.274;17.974;2022-07-29T13:15:27;101838.78;;;22.95;30.38
71476;BME280;59286;59.274;17.974;2022-07-29T13:17:53;101836.59;;;23.01;31.75
71476;BME280;59286;59.274;17.974;2022-07-29T13:20:18;101844.34;;;22.90;31.48
71476;BME280;59286;59.274;17.974;2022-07-29T13:22:47;101841.00;;;22.93;32.62
71476;BME280;59286;59.274;17.974;2022-07-29T13:25:12;101843.13;;;23.03;33.09
71476;BME280;59286;59.274;17.974;2022-07-29T13:27:38;101833.28;;;23.07;31.62